sensor_id;sensor_type;location;lat;lon;timestamp;P1;durP1;ratioP1;P2;durP2;ratioP2
44276;SDS011;29973;43.742;1.236;2022-07-29T00:00:03;2.17;;;1.80;;
44276;SDS011;29973;43.742;1.236;2022-07-29T00:02:30;5.60;;;2.17;;
44276;SDS011;29973;43.742;1.236;2022-07-29T00:04:57;4.57;;;2.00;;
44276;SDS011;29973;43.742;1.236;2022-07-29T00:07:23;5.45;;;1.95;;
44276;SDS011;29973;43.742;1.236;2022-07-29T00:09:49;6.70;;;2.53;;
44276;SDS011;29973;43.742;1.236;2022-07-29T00:12:15;9.50;;;2.08;;
44276;SDS011;29973;43.742;1.236;2022-07-29T00:14:41;5.20;;;1.77;;
44276;SDS011;29973;43.742;1.236;2022-07-29T00:17:07;3.80;;;2.08;;
44276;SDS011;29973;43.742;1.236;2022-07-29T00:19:33;4.82;;;2.28;;
44276;SDS011;29973;43.742;1.236;2022-07-29T00:21:59;3.55;;;1.98;;
44276;SDS011;29973;43.742;1.236;2022-07-29T00:24:25;6.03;;;2.03;;
44276;SDS011;29973;43.742;1.236;2022-07-29T00:26:51;3.72;;;1.77;;
44276;SDS011;29973;43.742;1.236;2022-07-29T00:29:17;6.35;;;2.17;;
44276;SDS011;29973;43.742;1.236;2022-07-29T00:31:42;3.55;;;1.85;;
44276;SDS011;29973;43.742;1.236;2022-07-29T00:34:08;3.22;;;1.55;;
44276;SDS011;29973;43.742;1.236;2022-07-29T00:36:54;4.45;;;2.15;;
44276;SDS011;29973;43.742;1.236;2022-07-29T00:39:19;5.03;;;1.88;;
44276;SDS011;29973;43.742;1.236;2022-07-29T00:41:45;5.07;;;2.35;;
44276;SDS011;29973;43.742;1.236;2022-07-29T00:44:11;2.90;;;1.73;;
44276;SDS011;29973;43.742;1.236;2022-07-29T00:46:37;3.90;;;1.60;;
44276;SDS011;29973;43.742;1.236;2022-07-29T00:49:02;6.90;;;1.95;;
44276;SDS011;29973;43.742;1.236;2022-07-29T00:51:28;6.95;;;2.03;;
44276;SDS011;29973;43.742;1.236;2022-07-29T00:53:55;2.85;;;1.90;;
44276;SDS011;29973;43.742;1.236;2022-07-29T00:56:22;5.72;;;1.92;;
44276;SDS011;29973;43.742;1.236;2022-07-29T00:58:47;2.97;;;2.08;;
44276;SDS011;29973;43.742;1.236;2022-07-29T01:01:15;4.30;;;2.05;;
44276;SDS011;29973;43.742;1.236;2022-07-29T01:03:41;5.13;;;1.90;;
44276;SDS011;29973;43.742;1.236;2022-07-29T01:06:07;5.10;;;1.70;;
44276;SDS011;29973;43.742;1.236;2022-07-29T01:08:33;6.65;;;2.70;;
44276;SDS011;29973;43.742;1.236;2022-07-29T01:10:59;5.90;;;2.05;;
44276;SDS011;29973;43.742;1.236;2022-07-29T01:13:27;4.85;;;2.08;;
44276;SDS011;29973;43.742;1.236;2022-07-29T01:15:56;2.97;;;1.55;;
44276;SDS011;29973;43.742;1.236;2022-07-29T01:24:11;3.08;;;1.70;;
44276;SDS011;29973;43.742;1.236;2022-07-29T01:27:03;4.05;;;2.28;;
44276;SDS011;29973;43.742;1.236;2022-07-29T01:29:44;4.45;;;1.90;;
44276;SDS011;29973;43.742;1.236;2022-07-29T01:32:15;4.38;;;1.83;;
44276;SDS011;29973;43.742;1.236;2022-07-29T01:34:53;4.57;;;1.95;;
44276;SDS011;29973;43.742;1.236;2022-07-29T01:37:33;4.25;;;2.10;;
44276;SDS011;29973;43.742;1.236;2022-07-29T01:40:09;4.97;;;1.67;;
44276;SDS011;29973;43.742;1.236;2022-07-29T01:42:42;6.72;;;1.58;;
44276;SDS011;29973;43.742;1.236;2022-07-29T01:50:30;3.90;;;1.58;;
44276;SDS011;29973;43.742;1.236;2022-07-29T01:53:04;9.32;;;1.80;;
44276;SDS011;29973;43.742;1.236;2022-07-29T01:55:40;9.32;;;2.25;;
44276;SDS011;29973;43.742;1.236;2022-07-29T01:58:09;3.38;;;1.52;;
44276;SDS011;29973;43.742;1.236;2022-07-29T02:00:37;5.35;;;1.58;;
44276;SDS011;29973;43.742;1.236;2022-07-29T02:03:05;4.72;;;1.80;;
44276;SDS011;29973;43.742;1.236;2022-07-29T02:05:34;3.67;;;1.83;;
44276;SDS011;29973;43.742;1.236;2022-07-29T02:08:02;4.57;;;2.40;;
44276;SDS011;29973;43.742;1.236;2022-07-29T02:10:31;6.07;;;1.92;;
44276;SDS011;29973;43.742;1.236;2022-07-29T02:12:58;7.00;;;1.92;;
44276;SDS011;29973;43.742;1.236;2022-07-29T02:15:27;4.75;;;1.95;;
44276;SDS011;29973;43.742;1.236;2022-07-29T02:18:01;2.38;;;1.80;;
44276;SDS011;29973;43.742;1.236;2022-07-29T02:20:31;3.58;;;1.90;;
44276;SDS011;29973;43.742;1.236;2022-07-29T02:22:58;8.73;;;2.30;;
44276;SDS011;29973;43.742;1.236;2022-07-29T02:25:25;8.90;;;2.65;;
44276;SDS011;29973;43.742;1.236;2022-07-29T02:27:52;3.28;;;1.88;;
44276;SDS011;29973;43.742;1.236;2022-07-29T02:30:19;6.40;;;1.60;;
44276;SDS011;29973;43.742;1.236;2022-07-29T02:32:48;5.60;;;2.10;;
44276;SDS011;29973;43.742;1.236;2022-07-29T02:35:15;4.88;;;2.13;;
44276;SDS011;29973;43.742;1.236;2022-07-29T02:37:43;5.93;;;2.00;;
44276;SDS011;29973;43.742;1.236;2022-07-29T02:40:30;2.40;;;1.50;;
44276;SDS011;29973;43.742;1.236;2022-07-29T02:42:58;2.10;;;1.77;;
44276;SDS011;29973;43.742;1.236;2022-07-29T02:45:24;3.95;;;1.80;;
44276;SDS011;29973;43.742;1.236;2022-07-29T02:47:50;3.47;;;1.80;;
44276;SDS011;29973;43.742;1.236;2022-07-29T02:52:58;3.38;;;2.33;;
44276;SDS011;29973;43.742;1.236;2022-07-29T02:55:29;5.90;;;2.08;;
44276;SDS011;29973;43.742;1.236;2022-07-29T02:58:02;5.30;;;1.90;;
44276;SDS011;29973;43.742;1.236;2022-07-29T03:00:51;3.45;;;1.73;;
44276;SDS011;29973;43.742;1.236;2022-07-29T03:03:18;3.67;;;2.30;;
44276;SDS011;29973;43.742;1.236;2022-07-29T03:05:45;4.78;;;2.05;;
44276;SDS011;29973;43.742;1.236;2022-07-29T03:08:11;2.58;;;1.90;;
44276;SDS011;29973;43.742;1.236;2022-07-29T03:10:43;3.50;;;1.95;;
44276;SDS011;29973;43.742;1.236;2022-07-29T03:13:10;6.50;;;2.55;;
44276;SDS011;29973;43.742;1.236;2022-07-29T03:15:38;5.53;;;2.25;;
44276;SDS011;29973;43.742;1.236;2022-07-29T03:18:04;4.68;;;2.22;;
44276;SDS011;29973;43.742;1.236;2022-07-29T03:20:31;4.60;;;2.40;;
44276;SDS011;29973;43.742;1.236;2022-07-29T03:22:57;4.80;;;2.08;;
44276;SDS011;29973;43.742;1.236;2022-07-29T03:25:23;5.82;;;2.28;;
44276;SDS011;29973;43.742;1.236;2022-07-29T03:27:48;4.20;;;2.10;;
44276;SDS011;29973;43.742;1.236;2022-07-29T03:30:14;3.55;;;2.20;;
44276;SDS011;29973;43.742;1.236;2022-07-29T03:32:41;5.00;;;2.50;;
44276;SDS011;29973;43.742;1.236;2022-07-29T03:35:06;3.85;;;2.10;;
44276;SDS011;29973;43.742;1.236;2022-07-29T03:37:33;5.03;;;2.30;;
44276;SDS011;29973;43.742;1.236;2022-07-29T03:40:02;6.65;;;2.17;;
44276;SDS011;29973;43.742;1.236;2022-07-29T03:42:33;4.25;;;1.92;;
44276;SDS011;29973;43.742;1.236;2022-07-29T03:45:03;6.60;;;2.28;;
44276;SDS011;29973;43.742;1.236;2022-07-29T03:47:32;9.50;;;2.20;;
44276;SDS011;29973;43.742;1.236;2022-07-29T03:50:06;8.05;;;2.22;;
44276;SDS011;29973;43.742;1.236;2022-07-29T03:52:35;4.40;;;1.90;;
44276;SDS011;29973;43.742;1.236;2022-07-29T03:55:02;4.10;;;2.20;;
44276;SDS011;29973;43.742;1.236;2022-07-29T03:57:28;4.88;;;2.63;;
44276;SDS011;29973;43.742;1.236;2022-07-29T03:59:56;3.38;;;1.92;;
44276;SDS011;29973;43.742;1.236;2022-07-29T04:02:23;3.05;;;2.20;;
44276;SDS011;29973;43.742;1.236;2022-07-29T04:04:50;4.32;;;2.10;;
44276;SDS011;29973;43.742;1.236;2022-07-29T04:07:16;5.63;;;2.50;;
44276;SDS011;29973;43.742;1.236;2022-07-29T04:09:42;7.10;;;2.38;;
44276;SDS011;29973;43.742;1.236;2022-07-29T04:12:08;5.00;;;2.05;;
44276;SDS011;29973;43.742;1.236;2022-07-29T04:14:34;1.90;;;1.67;;
44276;SDS011;29973;43.742;1.236;2022-07-29T04:17:01;4.90;;;2.05;;
44276;SDS011;29973;43.742;1.236;2022-07-29T04:19:28;3.17;;;2.30;;
44276;SDS011;29973;43.742;1.236;2022-07-29T04:21:54;5.32;;;2.10;;
44276;SDS011;29973;43.742;1.236;2022-07-29T04:24:20;4.03;;;2.03;;
44276;SDS011;29973;43.742;1.236;2022-07-29T04:26:46;5.88;;;2.30;;
44276;SDS011;29973;43.742;1.236;2022-07-29T04:29:12;3.25;;;2.08;;
44276;SDS011;29973;43.742;1.236;2022-07-29T04:31:39;7.18;;;2.58;;
44276;SDS011;29973;43.742;1.236;2022-07-29T04:34:08;2.97;;;2.03;;
44276;SDS011;29973;43.742;1.236;2022-07-29T04:36:34;3.72;;;2.70;;
44276;SDS011;29973;43.742;1.236;2022-07-29T04:38:59;4.78;;;2.60;;
44276;SDS011;29973;43.742;1.236;2022-07-29T04:41:26;6.43;;;2.60;;
44276;SDS011;29973;43.742;1.236;2022-07-29T04:43:53;6.80;;;2.10;;
44276;SDS011;29973;43.742;1.236;2022-07-29T04:46:18;3.28;;;1.88;;
44276;SDS011;29973;43.742;1.236;2022-07-29T04:48:47;8.13;;;2.88;;
44276;SDS011;29973;43.742;1.236;2022-07-29T04:51:14;6.18;;;3.03;;
44276;SDS011;29973;43.742;1.236;2022-07-29T04:53:40;6.80;;;2.35;;
44276;SDS011;29973;43.742;1.236;2022-07-29T04:56:06;5.03;;;2.50;;
44276;SDS011;29973;43.742;1.236;2022-07-29T04:58:33;6.55;;;2.55;;
44276;SDS011;29973;43.742;1.236;2022-07-29T05:01:00;7.07;;;2.55;;
44276;SDS011;29973;43.742;1.236;2022-07-29T05:03:25;4.40;;;2.70;;
44276;SDS011;29973;43.742;1.236;2022-07-29T05:05:51;7.88;;;2.50;;
44276;SDS011;29973;43.742;1.236;2022-07-29T05:08:17;7.45;;;3.10;;
44276;SDS011;29973;43.742;1.236;2022-07-29T05:10:42;7.80;;;3.25;;
44276;SDS011;29973;43.742;1.236;2022-07-29T05:13:08;6.22;;;3.00;;
44276;SDS011;29973;43.742;1.236;2022-07-29T05:15:34;7.93;;;3.50;;
44276;SDS011;29973;43.742;1.236;2022-07-29T05:18:02;6.18;;;2.80;;
44276;SDS011;29973;43.742;1.236;2022-07-29T05:20:29;14.73;;;3.00;;
44276;SDS011;29973;43.742;1.236;2022-07-29T05:22:56;5.50;;;3.00;;
44276;SDS011;29973;43.742;1.236;2022-07-29T05:25:22;7.05;;;3.35;;
44276;SDS011;29973;43.742;1.236;2022-07-29T05:27:49;6.60;;;3.17;;
44276;SDS011;29973;43.742;1.236;2022-07-29T05:30:15;7.05;;;2.55;;
44276;SDS011;29973;43.742;1.236;2022-07-29T05:32:41;9.27;;;3.80;;
44276;SDS011;29973;43.742;1.236;2022-07-29T05:35:06;5.70;;;3.15;;
44276;SDS011;29973;43.742;1.236;2022-07-29T05:37:33;8.05;;;3.45;;
44276;SDS011;29973;43.742;1.236;2022-07-29T05:39:59;6.10;;;2.92;;
44276;SDS011;29973;43.742;1.236;2022-07-29T05:42:25;6.30;;;3.42;;
44276;SDS011;29973;43.742;1.236;2022-07-29T05:44:51;8.93;;;3.53;;
44276;SDS011;29973;43.742;1.236;2022-07-29T05:47:17;8.25;;;3.28;;
44276;SDS011;29973;43.742;1.236;2022-07-29T05:49:43;3.25;;;2.60;;
44276;SDS011;29973;43.742;1.236;2022-07-29T05:52:09;7.30;;;3.00;;
44276;SDS011;29973;43.742;1.236;2022-07-29T05:54:35;7.45;;;3.53;;
44276;SDS011;29973;43.742;1.236;2022-07-29T05:57:01;5.68;;;3.03;;
44276;SDS011;29973;43.742;1.236;2022-07-29T05:59:28;5.20;;;2.90;;
44276;SDS011;29973;43.742;1.236;2022-07-29T06:01:53;4.70;;;2.75;;
44276;SDS011;29973;43.742;1.236;2022-07-29T06:04:19;4.25;;;3.10;;
44276;SDS011;29973;43.742;1.236;2022-07-29T06:06:45;5.57;;;3.15;;
44276;SDS011;29973;43.742;1.236;2022-07-29T06:09:11;4.18;;;2.72;;
44276;SDS011;29973;43.742;1.236;2022-07-29T06:11:37;4.53;;;3.20;;
44276;SDS011;29973;43.742;1.236;2022-07-29T06:14:02;3.15;;;2.65;;
44276;SDS011;29973;43.742;1.236;2022-07-29T06:16:28;6.53;;;2.92;;
44276;SDS011;29973;43.742;1.236;2022-07-29T06:18:54;5.00;;;2.90;;
44276;SDS011;29973;43.742;1.236;2022-07-29T06:21:20;6.55;;;3.00;;
44276;SDS011;29973;43.742;1.236;2022-07-29T06:23:45;7.50;;;3.30;;
44276;SDS011;29973;43.742;1.236;2022-07-29T06:26:11;6.70;;;2.95;;
44276;SDS011;29973;43.742;1.236;2022-07-29T06:28:37;12.45;;;3.38;;
44276;SDS011;29973;43.742;1.236;2022-07-29T06:31:02;7.53;;;2.95;;
44276;SDS011;29973;43.742;1.236;2022-07-29T06:33:28;6.95;;;2.88;;
44276;SDS011;29973;43.742;1.236;2022-07-29T06:35:54;7.50;;;3.00;;
44276;SDS011;29973;43.742;1.236;2022-07-29T06:38:20;5.93;;;2.95;;
44276;SDS011;29973;43.742;1.236;2022-07-29T06:40:46;5.13;;;3.10;;
44276;SDS011;29973;43.742;1.236;2022-07-29T06:43:38;4.05;;;2.78;;
44276;SDS011;29973;43.742;1.236;2022-07-29T06:46:09;5.43;;;3.00;;
44276;SDS011;29973;43.742;1.236;2022-07-29T06:48:39;7.95;;;2.83;;
44276;SDS011;29973;43.742;1.236;2022-07-29T06:51:07;4.03;;;2.47;;
44276;SDS011;29973;43.742;1.236;2022-07-29T06:53:34;6.28;;;2.63;;
44276;SDS011;29973;43.742;1.236;2022-07-29T06:56:01;3.53;;;2.22;;
44276;SDS011;29973;43.742;1.236;2022-07-29T06:58:28;9.20;;;3.03;;
44276;SDS011;29973;43.742;1.236;2022-07-29T07:00:55;2.97;;;2.47;;
44276;SDS011;29973;43.742;1.236;2022-07-29T07:03:22;3.63;;;2.63;;
44276;SDS011;29973;43.742;1.236;2022-07-29T07:05:48;5.45;;;2.78;;
44276;SDS011;29973;43.742;1.236;2022-07-29T07:08:14;6.00;;;2.53;;
44276;SDS011;29973;43.742;1.236;2022-07-29T07:10:41;7.75;;;2.45;;
44276;SDS011;29973;43.742;1.236;2022-07-29T07:13:07;10.00;;;2.47;;
44276;SDS011;29973;43.742;1.236;2022-07-29T07:15:34;4.60;;;2.42;;
44276;SDS011;29973;43.742;1.236;2022-07-29T07:18:01;3.38;;;2.38;;
44276;SDS011;29973;43.742;1.236;2022-07-29T07:20:27;3.72;;;2.65;;
44276;SDS011;29973;43.742;1.236;2022-07-29T07:22:53;8.23;;;2.50;;
44276;SDS011;29973;43.742;1.236;2022-07-29T07:25:19;3.05;;;2.50;;
44276;SDS011;29973;43.742;1.236;2022-07-29T07:27:45;3.15;;;2.10;;
44276;SDS011;29973;43.742;1.236;2022-07-29T07:30:11;4.93;;;2.67;;
44276;SDS011;29973;43.742;1.236;2022-07-29T07:32:37;8.45;;;3.35;;
44276;SDS011;29973;43.742;1.236;2022-07-29T07:35:03;7.03;;;2.88;;
44276;SDS011;29973;43.742;1.236;2022-07-29T07:37:30;7.63;;;3.05;;
44276;SDS011;29973;43.742;1.236;2022-07-29T07:39:56;7.05;;;2.67;;
44276;SDS011;29973;43.742;1.236;2022-07-29T07:42:23;6.65;;;2.80;;
44276;SDS011;29973;43.742;1.236;2022-07-29T07:44:49;5.60;;;3.17;;
44276;SDS011;29973;43.742;1.236;2022-07-29T07:47:15;5.13;;;2.83;;
44276;SDS011;29973;43.742;1.236;2022-07-29T07:49:45;8.35;;;3.15;;
44276;SDS011;29973;43.742;1.236;2022-07-29T07:52:14;4.47;;;3.05;;
44276;SDS011;29973;43.742;1.236;2022-07-29T07:54:41;5.20;;;2.88;;
44276;SDS011;29973;43.742;1.236;2022-07-29T07:57:09;5.82;;;2.90;;
44276;SDS011;29973;43.742;1.236;2022-07-29T07:59:34;6.78;;;2.92;;
44276;SDS011;29973;43.742;1.236;2022-07-29T08:02:00;6.22;;;3.13;;
44276;SDS011;29973;43.742;1.236;2022-07-29T08:04:26;6.13;;;3.58;;
44276;SDS011;29973;43.742;1.236;2022-07-29T08:06:52;7.32;;;3.50;;
44276;SDS011;29973;43.742;1.236;2022-07-29T08:09:19;6.70;;;3.17;;
44276;SDS011;29973;43.742;1.236;2022-07-29T08:11:46;6.40;;;2.78;;
44276;SDS011;29973;43.742;1.236;2022-07-29T08:14:12;4.57;;;2.70;;
44276;SDS011;29973;43.742;1.236;2022-07-29T08:16:38;8.13;;;2.63;;
44276;SDS011;29973;43.742;1.236;2022-07-29T08:19:08;4.63;;;3.05;;
44276;SDS011;29973;43.742;1.236;2022-07-29T08:21:34;5.80;;;2.92;;
44276;SDS011;29973;43.742;1.236;2022-07-29T08:24:00;3.67;;;2.75;;
44276;SDS011;29973;43.742;1.236;2022-07-29T08:26:45;6.35;;;3.13;;
44276;SDS011;29973;43.742;1.236;2022-07-29T08:29:11;5.78;;;2.78;;
44276;SDS011;29973;43.742;1.236;2022-07-29T08:31:38;5.05;;;2.63;;
44276;SDS011;29973;43.742;1.236;2022-07-29T08:34:04;4.65;;;2.90;;
44276;SDS011;29973;43.742;1.236;2022-07-29T08:36:31;9.35;;;3.17;;
44276;SDS011;29973;43.742;1.236;2022-07-29T08:38:58;6.45;;;2.80;;
44276;SDS011;29973;43.742;1.236;2022-07-29T08:41:25;8.10;;;2.75;;
44276;SDS011;29973;43.742;1.236;2022-07-29T08:43:52;4.65;;;3.15;;
44276;SDS011;29973;43.742;1.236;2022-07-29T08:46:18;5.85;;;3.00;;
44276;SDS011;29973;43.742;1.236;2022-07-29T08:48:45;6.60;;;2.70;;
44276;SDS011;29973;43.742;1.236;2022-07-29T08:51:13;3.78;;;2.55;;
44276;SDS011;29973;43.742;1.236;2022-07-29T08:53:41;4.78;;;2.97;;
44276;SDS011;29973;43.742;1.236;2022-07-29T08:56:12;7.78;;;2.72;;
44276;SDS011;29973;43.742;1.236;2022-07-29T08:58:39;3.97;;;2.50;;
44276;SDS011;29973;43.742;1.236;2022-07-29T09:01:05;4.57;;;2.78;;
44276;SDS011;29973;43.742;1.236;2022-07-29T09:03:32;4.95;;;2.58;;
44276;SDS011;29973;43.742;1.236;2022-07-29T09:06:01;5.53;;;2.30;;
44276;SDS011;29973;43.742;1.236;2022-07-29T09:08:28;4.53;;;2.38;;
44276;SDS011;29973;43.742;1.236;2022-07-29T09:10:55;5.80;;;2.50;;
44276;SDS011;29973;43.742;1.236;2022-07-29T09:13:22;5.18;;;2.25;;
44276;SDS011;29973;43.742;1.236;2022-07-29T09:15:48;7.15;;;2.58;;
44276;SDS011;29973;43.742;1.236;2022-07-29T09:21:07;7.70;;;2.50;;
44276;SDS011;29973;43.742;1.236;2022-07-29T09:24:00;6.97;;;2.30;;
44276;SDS011;29973;43.742;1.236;2022-07-29T09:26:29;4.18;;;2.70;;
44276;SDS011;29973;43.742;1.236;2022-07-29T09:29:09;6.15;;;2.80;;
44276;SDS011;29973;43.742;1.236;2022-07-29T09:31:37;5.22;;;2.50;;
44276;SDS011;29973;43.742;1.236;2022-07-29T09:34:05;7.47;;;2.60;;
44276;SDS011;29973;43.742;1.236;2022-07-29T09:36:39;2.42;;;1.65;;
44276;SDS011;29973;43.742;1.236;2022-07-29T09:39:05;6.82;;;2.45;;
44276;SDS011;29973;43.742;1.236;2022-07-29T09:41:43;6.45;;;2.30;;
44276;SDS011;29973;43.742;1.236;2022-07-29T09:44:12;5.85;;;2.38;;
44276;SDS011;29973;43.742;1.236;2022-07-29T09:46:52;6.30;;;1.95;;
44276;SDS011;29973;43.742;1.236;2022-07-29T09:49:19;3.50;;;2.05;;
44276;SDS011;29973;43.742;1.236;2022-07-29T09:51:45;3.72;;;1.77;;
44276;SDS011;29973;43.742;1.236;2022-07-29T09:54:25;3.80;;;1.90;;
44276;SDS011;29973;43.742;1.236;2022-07-29T09:56:52;4.93;;;2.08;;
44276;SDS011;29973;43.742;1.236;2022-07-29T09:59:18;4.10;;;1.83;;
44276;SDS011;29973;43.742;1.236;2022-07-29T10:01:51;3.58;;;1.73;;
44276;SDS011;29973;43.742;1.236;2022-07-29T10:04:17;2.75;;;1.50;;
44276;SDS011;29973;43.742;1.236;2022-07-29T10:06:59;3.95;;;1.63;;
44276;SDS011;29973;43.742;1.236;2022-07-29T10:09:27;7.85;;;2.08;;
44276;SDS011;29973;43.742;1.236;2022-07-29T10:14:48;6.18;;;1.73;;
44276;SDS011;29973;43.742;1.236;2022-07-29T10:17:15;4.65;;;2.08;;
44276;SDS011;29973;43.742;1.236;2022-07-29T10:19:41;4.43;;;1.60;;
44276;SDS011;29973;43.742;1.236;2022-07-29T10:22:08;3.78;;;1.73;;
44276;SDS011;29973;43.742;1.236;2022-07-29T10:24:35;3.35;;;1.73;;
44276;SDS011;29973;43.742;1.236;2022-07-29T10:27:04;4.55;;;1.58;;
44276;SDS011;29973;43.742;1.236;2022-07-29T10:29:31;6.55;;;1.73;;
44276;SDS011;29973;43.742;1.236;2022-07-29T10:32:02;5.25;;;1.50;;
44276;SDS011;29973;43.742;1.236;2022-07-29T10:43:36;3.88;;;1.85;;
44276;SDS011;29973;43.742;1.236;2022-07-29T10:46:06;4.47;;;1.53;;
44276;SDS011;29973;43.742;1.236;2022-07-29T10:48:32;2.38;;;1.70;;
44276;SDS011;29973;43.742;1.236;2022-07-29T10:51:03;4.72;;;1.77;;
44276;SDS011;29973;43.742;1.236;2022-07-29T10:56:30;3.38;;;1.77;;
44276;SDS011;29973;43.742;1.236;2022-07-29T11:01:52;4.53;;;1.77;;
44276;SDS011;29973;43.742;1.236;2022-07-29T11:07:09;6.93;;;1.90;;
44276;SDS011;29973;43.742;1.236;2022-07-29T11:09:37;2.03;;;1.60;;
44276;SDS011;29973;43.742;1.236;2022-07-29T11:12:04;5.85;;;1.88;;
44276;SDS011;29973;43.742;1.236;2022-07-29T11:17:17;1.95;;;1.42;;
44276;SDS011;29973;43.742;1.236;2022-07-29T11:19:43;4.10;;;1.52;;
44276;SDS011;29973;43.742;1.236;2022-07-29T11:22:09;6.43;;;1.90;;
44276;SDS011;29973;43.742;1.236;2022-07-29T11:24:36;7.00;;;2.17;;
44276;SDS011;29973;43.742;1.236;2022-07-29T11:27:06;2.95;;;1.60;;
44276;SDS011;29973;43.742;1.236;2022-07-29T11:32:10;5.78;;;1.70;;
44276;SDS011;29973;43.742;1.236;2022-07-29T11:34:39;2.17;;;1.20;;
44276;SDS011;29973;43.742;1.236;2022-07-29T11:44:55;2.25;;;1.50;;
44276;SDS011;29973;43.742;1.236;2022-07-29T11:47:24;6.22;;;1.40;;
44276;SDS011;29973;43.742;1.236;2022-07-29T11:49:52;3.90;;;1.40;;
44276;SDS011;29973;43.742;1.236;2022-07-29T11:52:19;3.05;;;1.70;;
44276;SDS011;29973;43.742;1.236;2022-07-29T11:54:51;5.75;;;1.73;;
44276;SDS011;29973;43.742;1.236;2022-07-29T11:57:18;4.43;;;1.65;;
44276;SDS011;29973;43.742;1.236;2022-07-29T11:59:45;4.00;;;1.88;;
44276;SDS011;29973;43.742;1.236;2022-07-29T12:02:12;3.45;;;1.55;;
44276;SDS011;29973;43.742;1.236;2022-07-29T12:07:14;1.80;;;1.30;;
44276;SDS011;29973;43.742;1.236;2022-07-29T12:09:39;3.13;;;1.60;;
44276;SDS011;29973;43.742;1.236;2022-07-29T12:12:15;3.22;;;1.80;;
44276;SDS011;29973;43.742;1.236;2022-07-29T12:14:41;5.00;;;1.75;;
44276;SDS011;29973;43.742;1.236;2022-07-29T12:17:21;2.13;;;1.20;;
44276;SDS011;29973;43.742;1.236;2022-07-29T12:19:54;4.53;;;1.50;;
44276;SDS011;29973;43.742;1.236;2022-07-29T12:22:24;5.82;;;1.50;;
44276;SDS011;29973;43.742;1.236;2022-07-29T12:24:52;5.55;;;1.42;;
44276;SDS011;29973;43.742;1.236;2022-07-29T12:27:18;5.30;;;1.52;;
44276;SDS011;29973;43.742;1.236;2022-07-29T12:29:45;4.55;;;1.58;;
44276;SDS011;29973;43.742;1.236;2022-07-29T12:32:20;5.65;;;1.70;;
44276;SDS011;29973;43.742;1.236;2022-07-29T12:34:46;3.17;;;1.77;;
44276;SDS011;29973;43.742;1.236;2022-07-29T12:37:12;5.88;;;1.42;;
44276;SDS011;29973;43.742;1.236;2022-07-29T12:39:38;5.22;;;1.40;;
44276;SDS011;29973;43.742;1.236;2022-07-29T12:42:11;4.65;;;1.60;;
44276;SDS011;29973;43.742;1.236;2022-07-29T12:44:48;3.60;;;1.77;;
44276;SDS011;29973;43.742;1.236;2022-07-29T12:47:14;3.13;;;1.80;;
44276;SDS011;29973;43.742;1.236;2022-07-29T12:49:42;4.55;;;1.80;;
44276;SDS011;29973;43.742;1.236;2022-07-29T12:54:54;4.50;;;1.48;;
44276;SDS011;29973;43.742;1.236;2022-07-29T12:57:21;3.90;;;1.58;;
44276;SDS011;29973;43.742;1.236;2022-07-29T13:02:26;3.45;;;1.98;;
44276;SDS011;29973;43.742;1.236;2022-07-29T13:04:59;4.47;;;2.17;;
44276;SDS011;29973;43.742;1.236;2022-07-29T13:07:26;4.05;;;1.52;;
44276;SDS011;29973;43.742;1.236;2022-07-29T13:09:54;2.50;;;1.40;;
44276;SDS011;29973;43.742;1.236;2022-07-29T13:15:00;3.38;;;1.73;;
44276;SDS011;29973;43.742;1.236;2022-07-29T13:17:44;3.42;;;1.90;;
44276;SDS011;29973;43.742;1.236;2022-07-29T13:20:10;5.95;;;1.70;;
44276;SDS011;29973;43.742;1.236;2022-07-29T13:22:42;4.20;;;1.75;;
44276;SDS011;29973;43.742;1.236;2022-07-29T13:25:13;2.53;;;1.50;;
44276;SDS011;29973;43.742;1.236;2022-07-29T13:27:39;6.25;;;1.90;;
44276;SDS011;29973;43.742;1.236;2022-07-29T13:30:07;4.35;;;1.73;;
44276;SDS011;29973;43.742;1.236;2022-07-29T13:32:34;4.00;;;1.38;;
44276;SDS011;29973;43.742;1.236;2022-07-29T13:35:02;2.33;;;1.30;;
44276;SDS011;29973;43.742;1.236;2022-07-29T13:37:30;3.05;;;1.60;;
44276;SDS011;29973;43.742;1.236;2022-07-29T13:39:57;3.53;;;1.60;;
44276;SDS011;29973;43.742;1.236;2022-07-29T13:42:24;3.40;;;1.70;;
44276;SDS011;29973;43.742;1.236;2022-07-29T13:44:51;2.63;;;1.60;;
44276;SDS011;29973;43.742;1.236;2022-07-29T13:47:20;3.10;;;1.55;;
44276;SDS011;29973;43.742;1.236;2022-07-29T13:49:46;3.67;;;1.25;;
44276;SDS011;29973;43.742;1.236;2022-07-29T13:52:12;4.15;;;1.60;;
44276;SDS011;29973;43.742;1.236;2022-07-29T13:54:38;2.38;;;1.30;;
44276;SDS011;29973;43.742;1.236;2022-07-29T13:57:04;3.22;;;1.80;;
44276;SDS011;29973;43.742;1.236;2022-07-29T13:59:30;2.35;;;1.55;;
44276;SDS011;29973;43.742;1.236;2022-07-29T14:01:57;1.67;;;1.58;;
44276;SDS011;29973;43.742;1.236;2022-07-29T14:04:22;4.20;;;1.75;;
44276;SDS011;29973;43.742;1.236;2022-07-29T14:06:50;4.22;;;1.40;;
44276;SDS011;29973;43.742;1.236;2022-07-29T14:09:16;3.92;;;1.70;;
44276;SDS011;29973;43.742;1.236;2022-07-29T14:11:42;4.15;;;1.70;;
44276;SDS011;29973;43.742;1.236;2022-07-29T14:14:08;3.30;;;1.70;;
44276;SDS011;29973;43.742;1.236;2022-07-29T14:16:35;5.22;;;1.63;;
44276;SDS011;29973;43.742;1.236;2022-07-29T14:19:00;4.03;;;1.42;;
44276;SDS011;29973;43.742;1.236;2022-07-29T14:21:26;2.08;;;1.42;;
44276;SDS011;29973;43.742;1.236;2022-07-29T14:23:52;3.17;;;1.48;;
44276;SDS011;29973;43.742;1.236;2022-07-29T14:26:19;2.95;;;1.88;;
44276;SDS011;29973;43.742;1.236;2022-07-29T14:28:46;3.92;;;2.00;;
44276;SDS011;29973;43.742;1.236;2022-07-29T14:31:13;2.45;;;1.60;;
44276;SDS011;29973;43.742;1.236;2022-07-29T14:33:39;3.85;;;1.67;;
44276;SDS011;29973;43.742;1.236;2022-07-29T14:36:04;4.13;;;1.73;;
44276;SDS011;29973;43.742;1.236;2022-07-29T14:38:30;6.60;;;1.33;;
44276;SDS011;29973;43.742;1.236;2022-07-29T14:40:56;4.93;;;1.55;;
44276;SDS011;29973;43.742;1.236;2022-07-29T14:43:21;3.67;;;1.75;;
44276;SDS011;29973;43.742;1.236;2022-07-29T14:45:47;3.15;;;1.70;;
44276;SDS011;29973;43.742;1.236;2022-07-29T14:48:13;4.18;;;1.67;;
44276;SDS011;29973;43.742;1.236;2022-07-29T14:50:39;3.75;;;1.65;;
44276;SDS011;29973;43.742;1.236;2022-07-29T14:53:05;5.03;;;1.75;;
44276;SDS011;29973;43.742;1.236;2022-07-29T14:55:30;4.07;;;1.70;;
44276;SDS011;29973;43.742;1.236;2022-07-29T14:57:56;3.85;;;1.65;;
44276;SDS011;29973;43.742;1.236;2022-07-29T15:00:23;3.95;;;1.73;;
44276;SDS011;29973;43.742;1.236;2022-07-29T15:02:50;5.45;;;1.70;;
44276;SDS011;29973;43.742;1.236;2022-07-29T15:05:15;4.07;;;1.95;;
44276;SDS011;29973;43.742;1.236;2022-07-29T15:07:41;3.97;;;1.60;;
44276;SDS011;29973;43.742;1.236;2022-07-29T15:10:07;2.60;;;1.42;;
44276;SDS011;29973;43.742;1.236;2022-07-29T15:12:33;1.92;;;1.50;;
44276;SDS011;29973;43.742;1.236;2022-07-29T15:14:58;3.40;;;1.45;;
44276;SDS011;29973;43.742;1.236;2022-07-29T15:17:24;2.75;;;1.50;;
44276;SDS011;29973;43.742;1.236;2022-07-29T15:19:50;2.50;;;1.70;;
44276;SDS011;29973;43.742;1.236;2022-07-29T15:22:16;4.70;;;1.67;;
44276;SDS011;29973;43.742;1.236;2022-07-29T15:24:42;3.50;;;1.73;;
44276;SDS011;29973;43.742;1.236;2022-07-29T15:27:08;2.97;;;1.65;;
44276;SDS011;29973;43.742;1.236;2022-07-29T15:29:39;3.50;;;1.60;;
44276;SDS011;29973;43.742;1.236;2022-07-29T15:32:08;1.97;;;1.60;;
44276;SDS011;29973;43.742;1.236;2022-07-29T15:34:34;4.13;;;1.65;;
44276;SDS011;29973;43.742;1.236;2022-07-29T15:37:00;3.50;;;1.70;;
44276;SDS011;29973;43.742;1.236;2022-07-29T15:39:25;5.93;;;1.70;;
44276;SDS011;29973;43.742;1.236;2022-07-29T15:41:51;2.55;;;1.45;;
44276;SDS011;29973;43.742;1.236;2022-07-29T15:44:17;4.90;;;1.98;;
44276;SDS011;29973;43.742;1.236;2022-07-29T15:46:44;4.38;;;1.70;;
44276;SDS011;29973;43.742;1.236;2022-07-29T15:49:28;2.95;;;1.70;;
44276;SDS011;29973;43.742;1.236;2022-07-29T15:52:01;5.38;;;1.80;;